Tuscarora, Nevada
Current Conditions -  °F | °C
As of 10:56 AM on Sunday 23 Nov 2014 (Local Time) from KEKO Reporting Station
Scattered Clouds Scattered Clouds  
Wind Chill: 30°   Ceiling: Unl
Heat Index: 36°   Visibility: 10mi
Dew Point: 22°   Wind: 8mph
Humidity: 57%   Direction: 230°SW
Pressure: 30.34"   Gusts: NA
Location:  41.31°N, 116.22°W
Report Text: KEKO 231856Z AUTO 23007KT 10SM FEW034 SCT043 02/M06 A3034 RMK AO2 SLP290 T00221056
Loading
Personal Weather Stations






























Interactive Weather Map New forecast layout! Learn more

10-Day Weather Forecast

Advertisements
Track Severe Weather on mobile